^^
Datos históricos de la estación: Murcia-Puente Tocinos
Diario Informe para Mayo 15, 2019 Unidades:  Métrico    Ingés   Ambas
Diario Semanal Mensual Anual
  Máxima: Mínima: Promedio:
Temperatura: 33.4 °C 22.3 °C 27.4 °C
Punto de rocio: 21.8 °C 16.1 °C 19.5 °C
Humedad: 88% 36% 65%
Velocidad viento: 20.1km/h 0km/h 8.1km/h
Racha viento: 33.8km/h - -
Viento- - Este
Presión: 1017.0 hPa 1014.0 hPa -
Precipitación: 0.0 mm    
 
 
Tabla de datos para Mayo 15, 2019
Hora Temperatura Punto de rocio Presión Viento Velocidad viento Racha viento Humedad Intensidad lluvia(por hora) Nubes
00:04 24.9 °C 21.6 °C 1016.3 hPa NE 11.9 km/h 19.3 km/h 81.8% 0.0 mm
00:09 24.9 °C 21.6 °C 1016.3 hPa NNE 11.5 km/h 16.1 km/h 82% 0.0 mm
00:14 24.9 °C 21.6 °C 1016.3 hPa NE 10.3 km/h 16.1 km/h 82% 0.0 mm
00:19 24.8 °C 21.7 °C 1016.3 hPa NE 9.6 km/h 12.2 km/h 82.6% 0.0 mm
00:24 24.8 °C 21.7 °C 1016.3 hPa NE 7.6 km/h 13 km/h 83% 0.0 mm
00:29 24.8 °C 21.7 °C 1016.3 hPa NE 7.3 km/h 11.9 km/h 83% 0.0 mm
00:34 24.8 °C 21.7 °C 1016.3 hPa NNE 6.5 km/h 11.9 km/h 83% 0.0 mm
00:39 24.7 °C 21.7 °C 1016.3 hPa NNE 6.8 km/h 13 km/h 83.5% 0.0 mm
00:44 24.7 °C 21.8 °C 1016.3 hPa NE 7.6 km/h 12.9 km/h 84% 0.0 mm
00:49 24.6 °C 21.7 °C 1016.3 hPa NNE 7.4 km/h 13 km/h 84% 0.0 mm
00:54 24.6 °C 21.7 °C 1016.3 hPa NE 6.9 km/h 12.9 km/h 84% 0.0 mm
00:59 24.5 °C 21.6 °C 1016.3 hPa NE 6.9 km/h 11.9 km/h 84% 0.0 mm
01:04 24.4 °C 21.5 °C 1016.4 hPa NNE 6.9 km/h 11.3 km/h 84.2% 0.0 mm
01:09 24.4 °C 21.7 °C 1016.4 hPa NNE 7.1 km/h 11.3 km/h 85% 0.0 mm
01:14 24.3 °C 21.6 °C 1016.4 hPa NNE 7.6 km/h 11.9 km/h 85% 0.0 mm
01:19 24.3 °C 21.6 °C 1016.4 hPa NNE 7.6 km/h 11.3 km/h 85% 0.0 mm
01:24 24.3 °C 21.6 °C 1016.2 hPa NE 7.6 km/h 11.3 km/h 85% 0.0 mm
01:29 24.3 °C 21.8 °C 1016.2 hPa NE 7.4 km/h 11.3 km/h 85.7% 0.0 mm
01:34 24.3 °C 21.8 °C 1016.3 hPa NE 6.9 km/h 12.2 km/h 86% 0.0 mm
01:39 24.3 °C 21.8 °C 1016.3 hPa NE 6.9 km/h 13 km/h 86% 0.0 mm
01:44 24.3 °C 21.8 °C 1016.3 hPa NE 6.9 km/h 11.3 km/h 86% 0.0 mm
01:49 24.3 °C 21.8 °C 1016.3 hPa NE 6.4 km/h 9.7 km/h 85.7% 0.0 mm
01:54 24.3 °C 21.6 °C 1016.2 hPa NE 5 km/h 8 km/h 85% 0.0 mm
01:59 24.3 °C 21.6 °C 1016.2 hPa NE 4.9 km/h 9.3 km/h 85% 0.0 mm
02:04 24.3 °C 21.6 °C 1016.2 hPa NE 4.6 km/h 9.7 km/h 85% 0.0 mm
02:09 24.3 °C 21.6 °C 1016.2 hPa NNE 4.7 km/h 9.7 km/h 85% 0.0 mm
02:14 24.2 °C 21.5 °C 1016.2 hPa NNE 4.7 km/h 8.4 km/h 85% 0.0 mm
02:19 24.2 °C 21.6 °C 1016.2 hPa NE 4.7 km/h 8.4 km/h 85.6% 0.0 mm
02:24 24.2 °C 21.7 °C 1016.0 hPa NE 5 km/h 8 km/h 86% 0.0 mm
02:29 24.2 °C 21.7 °C 1016.0 hPa NE 5 km/h 8.4 km/h 86% 0.0 mm
02:34 24.1 °C 21.6 °C 1016.0 hPa NE 5 km/h 8.4 km/h 86% 0.0 mm
02:39 24.1 °C 21.6 °C 1016.0 hPa NE 5 km/h 9.3 km/h 86% 0.0 mm
02:44 24.1 °C 21.6 °C 1016.0 hPa NE 5 km/h 9.7 km/h 86% 0.0 mm
02:49 24.1 °C 21.6 °C 1016.0 hPa NE 5.2 km/h 9.7 km/h 86% 0.0 mm
02:54 24 °C 21.5 °C 1015.9 hPa NE 5.8 km/h 8 km/h 86% 0.0 mm
02:59 24.1 °C 21.6 °C 1015.9 hPa NE 5.2 km/h 8 km/h 86% 0.0 mm
03:04 24.1 °C 21.6 °C 1015.9 hPa NE 3.9 km/h 8 km/h 86% 0.0 mm
03:09 24 °C 21.6 °C 1015.8 hPa NE 4.2 km/h 8 km/h 86.1% 0.0 mm
03:14 24 °C 21.7 °C 1015.8 hPa NE 5 km/h 8 km/h 87% 0.0 mm
03:19 24 °C 21.7 °C 1015.8 hPa NE 4.6 km/h 8 km/h 86.8% 0.0 mm
03:24 23.9 °C 21.4 °C 1015.8 hPa NNE 3.2 km/h 7.4 km/h 86% 0.0 mm
03:29 23.9 °C 21.6 °C 1015.8 hPa NNE 3.1 km/h 8 km/h 87% 0.0 mm
03:34 23.9 °C 21.6 °C 1015.8 hPa NNE 2.9 km/h 3.7 km/h 87% 0.0 mm
03:39 23.8 °C 21.5 °C 1015.8 hPa NNE 2.2 km/h 3.2 km/h 87% 0.0 mm
03:44 23.8 °C 21.5 °C 1015.8 hPa Calm   5.6 km/h 87% 0.0 mm
03:49 23.7 °C 21.4 °C 1015.8 hPa NNO 0.6 km/h 5.8 km/h 87.2% 0.0 mm
03:54 23.7 °C 21.6 °C 1015.8 hPa NNO 2.2 km/h 6.4 km/h 88% 0.0 mm
03:59 23.7 °C 21.6 °C 1015.8 hPa NNO 2.4 km/h 4.8 km/h 88% 0.0 mm
04:04 23.7 °C 21.6 °C 1015.8 hPa NNE 2.9 km/h 4.8 km/h 88% 0.0 mm
04:09 23.7 °C 21.6 °C 1015.8 hPa NNE 2.1 km/h 3.2 km/h 88% 0.0 mm
04:14 23.6 °C 21.4 °C 1015.8 hPa Calm   3.7 km/h 87.3% 0.0 mm
04:19 23.6 °C 21.3 °C 1015.8 hPa Calm   4.7 km/h 87% 0.0 mm
04:24 23.5 °C 21.2 °C 1015.7 hPa Calm   7.6 km/h 87% 0.0 mm
04:29 23.4 °C 21.1 °C 1015.7 hPa NE 1.2 km/h 8 km/h 87% 0.0 mm
04:34 23.4 °C 21.1 °C 1015.7 hPa NE 4.7 km/h 8 km/h 87% 0.0 mm
04:39 23.4 °C 21.2 °C 1015.7 hPa NE 4.4 km/h 8 km/h 87.7% 0.0 mm
04:44 23.3 °C 21.2 °C 1015.7 hPa NE 3.9 km/h 4.8 km/h 88% 0.0 mm
04:49 23.3 °C 21.2 °C 1015.7 hPa North 2.9 km/h 5.6 km/h 88% 0.0 mm
04:54 23.3 °C 21 °C 1015.7 hPa Calm   5.6 km/h 87.2% 0.0 mm
04:59 23.3 °C 21 °C 1015.7 hPa NNE 0.7 km/h 4.8 km/h 87% 0.0 mm
05:04 23.2 °C 20.9 °C 1015.7 hPa NNE 2.2 km/h 4.7 km/h 87% 0.0 mm
05:09 23.2 °C 21.1 °C 1015.6 hPa NNE 2.2 km/h 4.8 km/h 88% 0.0 mm
05:14 23.2 °C 20.9 °C 1015.6 hPa NNE 2.2 km/h 5.6 km/h 87.3% 0.0 mm
05:19 23.2 °C 20.9 °C 1015.6 hPa North 2.2 km/h 5.6 km/h 87% 0.0 mm
05:24 23.2 °C 20.9 °C 1015.6 hPa North 2.2 km/h 4.8 km/h 87% 0.0 mm
05:29 23.2 °C 20.9 °C 1015.6 hPa North 2.2 km/h 4.8 km/h 87% 0.0 mm
05:34 23.2 °C 20.8 °C 1015.6 hPa North 2.2 km/h   86.6% 0.0 mm
05:39 23.1 °C 20.6 °C 1015.6 hPa North 1.6 km/h   86% 0.0 mm
05:44 23 °C 20.5 °C 1015.6 hPa Calm   5.6 km/h 85.6% 0.0 mm
05:49 22.9 °C 20.2 °C 1015.7 hPa Este 0.7 km/h 5.8 km/h 84.8% 0.0 mm
05:54 22.8 °C 20.1 °C 1015.7 hPa Este 2.9 km/h 6.4 km/h 84.9% 0.0 mm
05:59 22.8 °C 20.2 °C 1015.7 hPa Este 2 km/h 3.2 km/h 85% 0.0 mm
06:04 22.8 °C 20.2 °C 1015.7 hPa Calm   4.8 km/h 85% 0.0 mm
06:09 22.8 °C 20 °C 1015.7 hPa ESE 0.8 km/h 7.4 km/h 84.3% 0.0 mm
06:14 22.8 °C 19.8 °C 1015.7 hPa ESE 3.2 km/h 8 km/h 83.1% 0.0 mm
06:19 22.8 °C 19.7 °C 1015.8 hPa ESE 3.1 km/h 4.8 km/h 83% 0.0 mm
06:24 22.8 °C 19.8 °C 1015.8 hPa ESE 2.9 km/h 3.2 km/h 83% 0.0 mm
06:29 22.8 °C 19.8 °C 1015.8 hPa ESE 2.2 km/h   83% 0.0 mm
06:34 22.8 °C 19.8 °C 1015.9 hPa Calm   5.8 km/h 83% 0.0 mm
06:39 22.8 °C 19.6 °C 1015.9 hPa ENE 0.7 km/h 7.4 km/h 82.4% 0.0 mm
06:44 22.6 °C 19.5 °C 1015.9 hPa Este 2.9 km/h 8 km/h 82.4% 0.0 mm
06:49 22.6 °C 19.5 °C 1016.0 hPa ESE 3.2 km/h 8 km/h 83% 0.0 mm
06:54 22.6 °C 19.6 °C 1016.0 hPa ESE 3.9 km/h 4.8 km/h 83.4% 0.0 mm
06:59 22.6 °C 19.8 °C 1016.0 hPa ESE 2.7 km/h 7.4 km/h 84% 0.0 mm
07:04 22.7 °C 19.7 °C 1016.1 hPa Calm   8 km/h 83.8% 0.0 mm
07:09 22.7 °C 19.8 °C 1016.1 hPa Este 0.8 km/h 4.8 km/h 83.7% 0.0 mm
07:14 22.7 °C 19.7 °C 1016.1 hPa Este 2.9 km/h 4.8 km/h 83% 0.0 mm
07:19 22.7 °C 19.7 °C 1016.2 hPa Este 2.2 km/h 4.7 km/h 83% 0.0 mm
07:24 22.6 °C 19.6 °C 1016.2 hPa Calm   4.8 km/h 83% 0.0 mm
07:29 22.6 °C 19.7 °C 1016.2 hPa Este 0.8 km/h 5.8 km/h 83.8% 0.0 mm
07:34 22.6 °C 19.7 °C 1016.3 hPa NE 2.9 km/h 6.4 km/h 83.6% 0.0 mm
07:39 22.5 °C 19.6 °C 1016.3 hPa ENE 3 km/h 6.4 km/h 83.9% 0.0 mm
07:44 22.4 °C 19.6 °C 1016.3 hPa ENE 3.2 km/h 7.4 km/h 84% 0.0 mm
07:49 22.3 °C 19.4 °C 1016.5 hPa Este 3.4 km/h 8 km/h 84% 0.0 mm
07:54 22.3 °C 19.4 °C 1016.5 hPa Este 3.9 km/h 7.4 km/h 84% 0.0 mm
07:59 22.3 °C 19.4 °C 1016.5 hPa Este 3.9 km/h 8 km/h 84% 0.0 mm
08:04 22.3 °C 19.5 °C 1016.6 hPa Este 3.9 km/h 8 km/h 84% 0.0 mm
08:09 22.5 °C 19.6 °C 1016.6 hPa Este 3.6 km/h 4.8 km/h 84% 0.0 mm
08:14 22.7 °C 19.8 °C 1016.6 hPa ESE 2.9 km/h 7.4 km/h 84% 0.0 mm
08:19 22.8 °C 19.8 °C 1016.7 hPa ESE 3 km/h 8 km/h 83.2% 0.0 mm
08:24 22.9 °C 19.8 °C 1016.7 hPa SE 3.2 km/h 5.8 km/h 82.9% 0.0 mm
08:29 23.2 °C 19.9 °C 1016.7 hPa SE 3.2 km/h 6.4 km/h 82% 0.0 mm
08:34 23.4 °C 20.1 °C 1016.8 hPa SE 3.2 km/h 6.4 km/h 82% 0.0 mm
08:39 23.7 °C 20.2 °C 1016.8 hPa SSO 3.4 km/h 8.4 km/h 81% 0.0 mm
08:44 23.8 °C 20.3 °C 1016.8 hPa SSO 3.9 km/h 8 km/h 81% 0.0 mm
08:49 23.8 °C 20.4 °C 1016.9 hPa SSO 3.7 km/h 8 km/h 81% 0.0 mm
08:54 24 °C 20.4 °C 1016.9 hPa SSO 3.2 km/h 8 km/h 80.4% 0.0 mm
08:59 24.1 °C 20.5 °C 1016.9 hPa SSO 3.4 km/h 8 km/h 80% 0.0 mm
09:04 24.3 °C 20.6 °C 1016.9 hPa Sur 3.9 km/h 8 km/h 79.9% 0.0 mm
09:09 24.5 °C 20.6 °C 1016.9 hPa SE 3.7 km/h 8 km/h 79.1% 0.0 mm
09:14 24.8 °C 20.8 °C 1016.9 hPa SE 3.2 km/h 8 km/h 78.8% 0.0 mm
09:19 25.1 °C 20.9 °C 1016.9 hPa ESE 3 km/h 5.6 km/h 77.3% 0.0 mm
09:24 25.4 °C 20.9 °C 1016.9 hPa ESE 2.2 km/h 6.4 km/h 76.2% 0.0 mm
09:29 25.7 °C 20.9 °C 1016.9 hPa ENE 2.5 km/h 8 km/h 75% 0.0 mm
09:34 25.8 °C 21 °C 1017.0 hPa ENE 3.2 km/h 9.5 km/h 74.9% 0.0 mm
09:39 25.8 °C 20.8 °C 1017.0 hPa ENE 3.6 km/h 9.7 km/h 74% 0.0 mm
09:44 25.8 °C 21 °C 1017.0 hPa ENE 4.7 km/h 8 km/h 74.6% 0.0 mm
09:49 26 °C 21.2 °C 1017.0 hPa ENE 4.3 km/h 9.3 km/h 74.8% 0.0 mm
09:54 26.1 °C 21.1 °C 1016.9 hPa NNE 3.2 km/h 10 km/h 74% 0.0 mm
09:59 25.9 °C 21.1 °C 1016.9 hPa North 3.7 km/h 9.7 km/h 75% 0.0 mm
10:04 26 °C 21.4 °C 1017.0 hPa North 4.7 km/h 9.7 km/h 75.6% 0.0 mm
10:09 26.1 °C 21.4 °C 1017.0 hPa NNE 4.7 km/h 9.7 km/h 75.3% 0.0 mm
10:14 26.2 °C 21.4 °C 1017.0 hPa NE 4.7 km/h 10 km/h 75% 0.0 mm
10:19 26.2 °C 21.4 °C 1017.0 hPa ENE 4.7 km/h 9.7 km/h 75% 0.0 mm
10:24 26.2 °C 21.4 °C 1016.9 hPa NNE 5 km/h 9.5 km/h 75% 0.0 mm
10:29 26.2 °C 21.4 °C 1016.9 hPa NO 4.7 km/h 9.7 km/h 75% 0.0 mm
10:34 26.3 °C 21.5 °C 1016.9 hPa NNO 3.9 km/h 9.7 km/h 75% 0.0 mm
10:39 26.3 °C 21.5 °C 1016.8 hPa NE 4.1 km/h 10 km/h 74.9% 0.0 mm
10:44 26.4 °C 21.5 °C 1016.8 hPa NE 4.7 km/h 9.7 km/h 74.3% 0.0 mm
10:49 26.6 °C 21.4 °C 1016.8 hPa North 4.7 km/h 9.7 km/h 73.3% 0.0 mm
10:54 26.7 °C 21.5 °C 1016.8 hPa North 5 km/h 9.7 km/h 73.1% 0.0 mm
10:59 26.9 °C 21.6 °C 1016.8 hPa North 4.9 km/h 9.5 km/h 72.5% 0.0 mm
11:04 27.1 °C 21.2 °C 1016.8 hPa NO 4.7 km/h 10 km/h 70.3% 0.0 mm
11:09 27.2 °C 21.3 °C 1016.8 hPa NO 4.7 km/h 11.1 km/h 70.1% 0.0 mm
11:14 27.2 °C 21.1 °C 1016.8 hPa ENE 5 km/h 14.8 km/h 69.3% 0.0 mm
11:19 27.4 °C 21 °C 1016.8 hPa North 5.4 km/h 14.5 km/h 68.3% 0.0 mm
11:24 27.5 °C 21 °C 1016.8 hPa NNE 6.5 km/h 14.5 km/h 68% 0.0 mm
11:29 27.7 °C 21.1 °C 1016.8 hPa NNE 6.5 km/h 13 km/h 67.3% 0.0 mm
11:34 27.7 °C 20.9 °C 1016.8 hPa North 6.5 km/h 14.8 km/h 66.4% 0.0 mm
11:39 27.8 °C 20.7 °C 1016.7 hPa NNE 6.8 km/h 14.8 km/h 65.2% 0.0 mm
11:44 27.9 °C 20.6 °C 1016.7 hPa NE 7.6 km/h 19.8 km/h 64.7% 0.0 mm
11:49 28.1 °C 20.6 °C 1016.7 hPa NNE 7.8 km/h 20.9 km/h 63.8% 0.0 mm
11:54 28.3 °C 20.4 °C 1016.7 hPa North 8.4 km/h 17.7 km/h 62.4% 0.0 mm
11:59 28.4 °C 20.3 °C 1016.7 hPa NNE 7.9 km/h 14.8 km/h 61.6% 0.0 mm
12:04 28.7 °C 20.2 °C 1016.7 hPa NNE 6.9 km/h 20.4 km/h 60.1% 0.0 mm
12:09 28.8 °C 20.1 °C 1016.6 hPa ENE 6.9 km/h 20.9 km/h 59.1% 0.0 mm
12:14 29.2 °C 19.9 °C 1016.6 hPa NNE 6.9 km/h 13 km/h 57.6% 0.0 mm
12:19 29.3 °C 19.9 °C 1016.6 hPa NE 7.3 km/h 14.8 km/h 56.9% 0.0 mm
12:24 29.4 °C 19.8 °C 1016.4 hPa NNE 8.4 km/h 14.5 km/h 56.1% 0.0 mm
12:29 29.6 °C 19.6 °C 1016.4 hPa NNE 8.4 km/h 18.5 km/h 55% 0.0 mm
12:34 29.8 °C 19.4 °C 1016.4 hPa NE 8.4 km/h 19.3 km/h 53.9% 0.0 mm
12:39 30.1 °C 19.6 °C 1016.2 hPa NE 8 km/h 14.8 km/h 53.6% 0.0 mm
12:44 30.4 °C 19.4 °C 1016.2 hPa NE 6.9 km/h 15.6 km/h 52% 0.0 mm
12:49 30.5 °C 19.1 °C 1016.2 hPa NE 7.4 km/h 17.2 km/h 50.6% 0.0 mm
12:54 30.6 °C 19.2 °C 1016.0 hPa NNE 8.7 km/h 17.7 km/h 50.7% 0.0 mm
12:59 30.8 °C 19.4 °C 1016.0 hPa NNE 8.3 km/h 16.1 km/h 50.8% 0.0 mm
13:04 30.9 °C 18.7 °C 1016.0 hPa NE 7.6 km/h 19 km/h 48.5% 0.0 mm
13:09 30.9 °C 18.8 °C 1015.8 hPa Este 7.9 km/h 19.3 km/h 48.6% 0.0 mm
13:14 31.2 °C 18.3 °C 1015.8 hPa NE 8.7 km/h 20.9 km/h 46.4% 0.0 mm
13:19 31.3 °C 17.5 °C 1015.8 hPa NNE 8.9 km/h 20.9 km/h 43.7% 0.0 mm
13:24 31.6 °C 17.6 °C 1015.7 hPa NE 9.5 km/h 14.8 km/h 43.4% 0.0 mm
13:29 31.8 °C 17.7 °C 1015.7 hPa NE 9.2 km/h 14.5 km/h 43.2% 0.0 mm
13:34 32.2 °C 17.7 °C 1015.7 hPa NNE 8.4 km/h 16.7 km/h 42.2% 0.0 mm
13:39 32.3 °C 17.7 °C 1015.5 hPa ENE 8 km/h 16.1 km/h 41.8% 0.0 mm
13:44 32.6 °C 16.7 °C 1015.5 hPa Este 6.9 km/h 14.8 km/h 38.7% 0.0 mm
13:49 32.8 °C 16.1 °C 1015.5 hPa Este 6.9 km/h 14.5 km/h 36.7% 0.0 mm
13:54 33 °C 16.2 °C 1015.3 hPa Este 6.9 km/h 14 km/h 36.6% 0.0 mm
13:59 33.2 °C 16.1 °C 1015.3 hPa Sur 6.9 km/h 14.8 km/h 36% 0.0 mm
14:04 33.2 °C 16.1 °C 1015.3 hPa OSO 6.9 km/h 14.5 km/h 36% 0.0 mm
14:09 33.3 °C 17 °C 1015.2 hPa SE 6.4 km/h 27.4 km/h 37.8% 0.0 mm
14:14 33.2 °C 17.5 °C 1015.2 hPa SSE 5 km/h 27.8 km/h 39.2% 0.0 mm
14:19 33.1 °C 17.5 °C 1015.2 hPa SSE 7.3 km/h 22.5 km/h 39.7% 0.0 mm
14:24 33.1 °C 17.6 °C 1015.1 hPa SE 13.7 km/h 19.3 km/h 40% 0.0 mm
14:29 33.2 °C 17.7 °C 1015.1 hPa ESE 13 km/h 20.9 km/h 40% 0.0 mm
14:34 33.2 °C 17.5 °C 1015.1 hPa SE 11.1 km/h 27.8 km/h 39.2% 0.0 mm
14:39 33.1 °C 17.2 °C 1015.1 hPa SE 12.1 km/h 27.4 km/h 38.9% 0.0 mm
14:44 33.1 °C 17.2 °C 1015.1 hPa ESE 14.8 km/h 28.6 km/h 38.9% 0.0 mm
14:49 33.1 °C 17.1 °C 1015.1 hPa ESE 15 km/h 29.6 km/h 38.7% 0.0 mm
14:54 33.2 °C 17.1 °C 1014.9 hPa SE 15.6 km/h 27.4 km/h 38.5% 0.0 mm
14:59 33.2 °C 17 °C 1014.9 hPa ESE 15 km/h 28.6 km/h 38.1% 0.0 mm
15:04 33.2 °C 17 °C 1014.9 hPa ESE 13.7 km/h 30.6 km/h 38.1% 0.0 mm
15:09 33.1 °C 16.7 °C 1014.9 hPa ESE 14.9 km/h 30.6 km/h 37.6% 0.0 mm
15:14 33.1 °C 16.8 °C 1014.9 hPa ESE 18 km/h 30.6 km/h 37.9% 0.0 mm
15:19 33.1 °C 16.9 °C 1014.9 hPa ESE 17.5 km/h 29 km/h 38% 0.0 mm
15:24 33.3 °C 16.8 °C 1014.8 hPa ESE 16.1 km/h 25.9 km/h 37.3% 0.0 mm
15:29 33.4 °C 17 °C 1014.8 hPa ESE 15.7 km/h 27.8 km/h 37.6% 0.0 mm
15:34 33.2 °C 16.9 °C 1014.8 hPa ESE 14.8 km/h 27.8 km/h 37.9% 0.0 mm
15:39 33.2 °C 16.7 °C 1014.7 hPa ESE 15.6 km/h 28.2 km/h 37.4% 0.0 mm
15:44 33.2 °C 16.7 °C 1014.7 hPa ESE 18 km/h 27.4 km/h 37.6% 0.0 mm
15:49 33.3 °C 17 °C 1014.7 hPa ESE 16.8 km/h 25.7 km/h 38% 0.0 mm
15:54 33.3 °C 17.1 °C 1014.6 hPa ESE 13.7 km/h 28.2 km/h 38% 0.0 mm
15:59 33.2 °C 16.9 °C 1014.6 hPa ESE 14.5 km/h 27.4 km/h 37.9% 0.0 mm
16:04 33.3 °C 17.3 °C 1014.6 hPa SE 16.4 km/h 29.6 km/h 38.6% 0.0 mm
16:09 33.2 °C 17.3 °C 1014.3 hPa SE 16.8 km/h 30.6 km/h 38.9% 0.0 mm
16:14 33.2 °C 17.4 °C 1014.3 hPa SE 18 km/h 31.5 km/h 39.1% 0.0 mm
16:19 33.2 °C 17.4 °C 1014.3 hPa ESE 17.6 km/h 32.2 km/h 39% 0.0 mm
16:24 33.2 °C 17.3 °C 1014.3 hPa SE 16.4 km/h 32.2 km/h 39% 0.0 mm
16:29 33 °C 17.2 °C 1014.3 hPa ESE 16.8 km/h 33.3 km/h 39.1% 0.0 mm
16:34 32.8 °C 17.3 °C 1014.3 hPa ESE 18 km/h 33.8 km/h 39.5% 0.0 mm
16:39 32.8 °C 17.1 °C 1014.2 hPa ESE 18 km/h 32.2 km/h 39.3% 0.0 mm
16:44 33.1 °C 17 °C 1014.2 hPa ESE 18 km/h 32.2 km/h 38.3% 0.0 mm
16:49 32.9 °C 16.7 °C 1014.2 hPa ESE 18 km/h 29.6 km/h 38.1% 0.0 mm
16:54 32.8 °C 16.7 °C 1014.2 hPa SE 18 km/h 29 km/h 38% 0.0 mm
16:59 33.1 °C 16.9 °C 1014.2 hPa ESE 17.4 km/h 25.9 km/h 38% 0.0 mm
17:04 33.2 °C 16.6 °C 1014.2 hPa SE 16.1 km/h 27.8 km/h 37.2% 0.0 mm
17:09 32.9 °C 16.7 °C 1014.2 hPa ESE 16.4 km/h 28.6 km/h 38% 0.0 mm
17:14 32.8 °C 16.7 °C 1014.2 hPa ESE 17.2 km/h 29.6 km/h 38% 0.0 mm
17:19 32.9 °C 16.7 °C 1014.2 hPa ESE 16.9 km/h 27.4 km/h 37.8% 0.0 mm
17:24 32.9 °C 16.7 °C 1014.1 hPa ESE 16.1 km/h 31.5 km/h 38% 0.0 mm
17:29 32.8 °C 16.5 °C 1014.1 hPa ESE 16.7 km/h 32.2 km/h 37.9% 0.0 mm
17:34 32.6 °C 16.6 °C 1014.1 hPa ESE 18.4 km/h 31.5 km/h 38.5% 0.0 mm
17:39 32.5 °C 16.7 °C 1014.1 hPa ESE 18.9 km/h 32.2 km/h 38.7% 0.0 mm
17:44 32.3 °C 16.8 °C 1014.1 hPa ESE 20.1 km/h 32.2 km/h 39.4% 0.0 mm
17:49 32.3 °C 16.9 °C 1014.1 hPa ESE 19.5 km/h 29.8 km/h 40% 0.0 mm
17:54 32.3 °C 17 °C 1014.0 hPa SE 18 km/h 33.5 km/h 40% 0.0 mm
17:59 32.2 °C 16.9 °C 1014.0 hPa ESE 18.1 km/h 33.8 km/h 40.2% 0.0 mm
18:04 32.1 °C 17.1 °C 1014.1 hPa ESE 18.4 km/h 31.7 km/h 40.9% 0.0 mm
18:09 32.1 °C 17.2 °C 1014.1 hPa ESE 17.7 km/h 32.2 km/h 41% 0.0 mm
18:14 32.1 °C 17.1 °C 1014.1 hPa ESE 16.1 km/h 33.5 km/h 41% 0.0 mm
18:19 31.8 °C 17 °C 1014.2 hPa ESE 16.7 km/h 33.8 km/h 41.2% 0.0 mm
18:24 31.7 °C 17.2 °C 1014.2 hPa ESE 18.4 km/h 32.2 km/h 41.8% 0.0 mm
18:29 31.8 °C 17.4 °C 1014.2 hPa ESE 18.4 km/h 29 km/h 42.3% 0.0 mm
18:34 31.7 °C 17.6 °C 1014.2 hPa ESE 18.4 km/h 28.2 km/h 43% 0.0 mm
18:39 31.7 °C 17.6 °C 1014.2 hPa ESE 17.1 km/h 27.4 km/h 42.9% 0.0 mm
18:44 31.8 °C 17.6 °C 1014.2 hPa ESE 13.7 km/h 23.7 km/h 42.9% 0.0 mm
18:49 31.6 °C 17.7 °C 1014.4 hPa ESE 14 km/h 28.2 km/h 43.5% 0.0 mm
18:54 31.3 °C 17.7 °C 1014.4 hPa ESE 14.8 km/h 27.4 km/h 44.3% 0.0 mm
18:59 31.2 °C 17.8 °C 1014.4 hPa ESE 15.1 km/h 24.1 km/h 44.9% 0.0 mm
19:04 31.2 °C 17.8 °C 1014.4 hPa ESE 15.6 km/h 27 km/h 45% 0.0 mm
19:09 31.2 °C 18.1 °C 1014.4 hPa ESE 15.2 km/h 27.8 km/h 45.8% 0.0 mm
19:14 31.1 °C 18.1 °C 1014.4 hPa ESE 14 km/h 27.4 km/h 46% 0.0 mm
19:19 31 °C 18.1 °C 1014.4 hPa ESE 14.2 km/h 24.5 km/h 46.4% 0.0 mm
19:24 30.9 °C 18.2 °C 1014.3 hPa ESE 14.8 km/h 24.1 km/h 46.7% 0.0 mm
19:29 30.9 °C 18.2 °C 1014.3 hPa ESE 13.6 km/h 20.4 km/h 46.9% 0.0 mm
19:34 30.8 °C 18.2 °C 1014.3 hPa ESE 10.3 km/h 22.2 km/h 46.8% 0.0 mm
19:39 30.7 °C 18.1 °C 1014.3 hPa ESE 10.8 km/h 22.5 km/h 47% 0.0 mm
19:44 30.7 °C 18.3 °C 1014.3 hPa ESE 12.2 km/h 24.1 km/h 47.5% 0.0 mm
19:49 30.7 °C 18.4 °C 1014.3 hPa ESE 11.9 km/h 24.1 km/h 48% 0.0 mm
19:54 30.6 °C 18.3 °C 1014.3 hPa ESE 11.1 km/h 22.2 km/h 48% 0.0 mm
19:59 30.4 °C 18.2 °C 1014.3 hPa ESE 11.4 km/h 22.5 km/h 48% 0.0 mm
20:04 30.3 °C 18.1 °C 1014.5 hPa ESE 12.2 km/h 22.5 km/h 48% 0.0 mm
20:09 30.3 °C 18.2 °C 1014.5 hPa ESE 11.7 km/h 22.5 km/h 48.4% 0.0 mm
20:14 30.2 °C 18.2 °C 1014.5 hPa ESE 10.3 km/h 24.1 km/h 48.5% 0.0 mm
20:19 30 °C 18.1 °C 1014.6 hPa ESE 11.5 km/h 24.1 km/h 49% 0.0 mm
20:24 29.8 °C 18.2 °C 1014.6 hPa ESE 14.8 km/h 24.1 km/h 49.9% 0.0 mm
20:29 29.8 °C 18.1 °C 1014.6 hPa ESE 13.8 km/h 20.4 km/h 49.5% 0.0 mm
20:34 29.7 °C 18.1 °C 1014.8 hPa ESE 11.1 km/h 22.2 km/h 49.9% 0.0 mm
20:39 29.6 °C 18.3 °C 1014.8 hPa ESE 11.4 km/h 22.5 km/h 50.7% 0.0 mm
20:44 29.4 °C 18.2 °C 1014.8 hPa Este 12.2 km/h 19.3 km/h 51% 0.0 mm
20:49 29.3 °C 18.2 °C 1014.8 hPa ESE 11.5 km/h 17.7 km/h 51.4% 0.0 mm
20:54 29.2 °C 18.2 °C 1014.7 hPa Este 9.5 km/h 20.4 km/h 51.9% 0.0 mm
20:59 29.1 °C 18.2 °C 1014.7 hPa Este 9.5 km/h 20.9 km/h 52% 0.0 mm
21:04 28.9 °C 18.1 °C 1014.9 hPa ENE 9.5 km/h 14.8 km/h 52.1% 0.0 mm
21:09 28.8 °C 18.3 °C 1014.9 hPa NE 9 km/h 14.5 km/h 53% 0.0 mm
21:14 28.7 °C 18.5 °C 1014.9 hPa NE 7.6 km/h 12.9 km/h 53.9% 0.0 mm
21:19 28.5 °C 18.5 °C 1014.9 hPa NE 7.3 km/h 11.3 km/h 54.6% 0.0 mm
21:24 28.3 °C 18.4 °C 1014.9 hPa NE 6.5 km/h 13.7 km/h 55.1% 0.0 mm
21:29 28.1 °C 18.5 °C 1014.9 hPa NE 6.8 km/h 16.7 km/h 56% 0.0 mm
21:34 27.9 °C 18.6 °C 1015.1 hPa NE 7.6 km/h 16.1 km/h 56.9% 0.0 mm
21:39 27.7 °C 18.5 °C 1015.1 hPa NE 8.3 km/h 16.7 km/h 57.3% 0.0 mm
21:44 27.6 °C 18.7 °C 1015.1 hPa NE 10 km/h 20.4 km/h 58.2% 0.0 mm
21:49 27.4 °C 18.7 °C 1015.3 hPa NE 10.1 km/h 20.9 km/h 59% 0.0 mm
21:54 27.3 °C 18.8 °C 1015.3 hPa NE 10.3 km/h 16.1 km/h 59.8% 0.0 mm
21:59 27.2 °C 18.8 °C 1015.3 hPa ENE 10.1 km/h 18.5 km/h 60% 0.0 mm
22:04 27.1 °C 18.9 °C 1015.5 hPa ENE 9.5 km/h 19.3 km/h 60.9% 0.0 mm
22:09 27 °C 18.8 °C 1015.5 hPa ENE 8.7 km/h 14.5 km/h 61.1% 0.0 mm
22:14 26.9 °C 19 °C 1015.5 hPa NE 6.5 km/h 14.8 km/h 62% 0.0 mm
22:19 26.8 °C 18.9 °C 1015.6 hPa ENE 6.8 km/h 14.5 km/h 62% 0.0 mm
22:24 26.7 °C 19.1 °C 1015.6 hPa ENE 7.6 km/h 13 km/h 63% 0.0 mm
22:29 26.6 °C 19 °C 1015.6 hPa ENE 7.4 km/h 14.8 km/h 63% 0.0 mm
22:34 26.6 °C 19 °C 1015.7 hPa NE 6.9 km/h 18.5 km/h 63.3% 0.0 mm
22:39 26.3 °C 19.1 °C 1015.7 hPa NE 7.8 km/h 19.3 km/h 64.3% 0.0 mm
22:44 26.3 °C 19.2 °C 1015.7 hPa NE 10 km/h 16.1 km/h 65% 0.0 mm
22:49 26.2 °C 19.1 °C 1015.9 hPa NE 9.6 km/h 15.6 km/h 65% 0.0 mm
22:54 26.2 °C 19.1 °C 1015.9 hPa NE 8.7 km/h 16.1 km/h 65% 0.0 mm
22:59 26.2 °C 19.2 °C 1015.9 hPa NE 8.9 km/h 14.8 km/h 65.6% 0.0 mm
23:04 26.1 °C 19.2 °C 1016.0 hPa NE 9.5 km/h 14.5 km/h 66% 0.0 mm
23:09 26 °C 19.4 °C 1016.0 hPa NE 9 km/h 14.8 km/h 66.7% 0.0 mm
23:14 26 °C 19.4 °C 1016.0 hPa NE 7.6 km/h 16.7 km/h 67.2% 0.0 mm
23:19 25.9 °C 19.6 °C 1016.0 hPa NE 8.1 km/h 16.1 km/h 68% 0.0 mm
23:24 25.8 °C 19.7 °C 1016.0 hPa NE 9.5 km/h 15.6 km/h 69% 0.0 mm
23:29 25.8 °C 19.7 °C 1016.0 hPa NE 9.3 km/h 16.1 km/h 69.3% 0.0 mm
23:34 25.7 °C 19.9 °C 1016.0 hPa NE 8.7 km/h 15.6 km/h 70.4% 0.0 mm
23:39 25.6 °C 19.9 °C 1016.0 hPa NE 8.7 km/h 16.1 km/h 71% 0.0 mm
23:44 25.5 °C 20 °C 1016.0 hPa NE 8.7 km/h 11.3 km/h 71.6% 0.0 mm
23:49 25.4 °C 20 °C 1016.0 hPa NE 8.2 km/h 13 km/h 72% 0.0 mm
23:54 25.4 °C 20.1 °C 1016.0 hPa NE 6.9 km/h 12.9 km/h 72.5% 0.0 mm
23:59 25.3 °C 20.1 °C 1016.0 hPa NE 6.6 km/h 10 km/h 73% 0.0 mm
Murcia-Puente Tocinos, España
Compliments of Weather Underground - 3 mb

La estación de MeteoMurcia.com, publica sus datos en los siguientes proyectos:

Weather Underground PWS IMURCIAP2 Meteoclimatic www.awekas.at

W3Counter
Web Analytics